sensor_id;sensor_type;location;lat;lon;timestamp;temperature;humidity
31391;DHT22;18022;45.492;11.548;2024-03-17T00:02:23;13.00;99.90
31391;DHT22;18022;45.492;11.548;2024-03-17T00:04:48;13.00;99.90
31391;DHT22;18022;45.492;11.548;2024-03-17T00:07:23;13.10;99.90
31391;DHT22;18022;45.492;11.548;2024-03-17T00:09:52;13.20;99.90
31391;DHT22;18022;45.492;11.548;2024-03-17T00:12:17;13.10;99.90
31391;DHT22;18022;45.492;11.548;2024-03-17T00:14:43;13.00;99.90
31391;DHT22;18022;45.492;11.548;2024-03-17T00:17:10;12.80;99.90
31391;DHT22;18022;45.492;11.548;2024-03-17T00:19:36;12.80;99.90
31391;DHT22;18022;45.492;11.548;2024-03-17T00:22:01;12.80;99.90
31391;DHT22;18022;45.492;11.548;2024-03-17T00:24:27;12.70;99.90
31391;DHT22;18022;45.492;11.548;2024-03-17T00:27:02;12.60;99.90
31391;DHT22;18022;45.492;11.548;2024-03-17T00:29:28;12.60;99.90
31391;DHT22;18022;45.492;11.548;2024-03-17T00:31:54;12.70;99.90
31391;DHT22;18022;45.492;11.548;2024-03-17T00:34:20;12.70;99.90
31391;DHT22;18022;45.492;11.548;2024-03-17T00:36:46;12.60;99.90
31391;DHT22;18022;45.492;11.548;2024-03-17T00:39:12;12.60;99.90
31391;DHT22;18022;45.492;11.548;2024-03-17T00:41:37;12.50;99.90
31391;DHT22;18022;45.492;11.548;2024-03-17T00:44:04;12.60;99.90
31391;DHT22;18022;45.492;11.548;2024-03-17T00:46:29;12.60;99.90
31391;DHT22;18022;45.492;11.548;2024-03-17T00:48:55;12.50;99.90
31391;DHT22;18022;45.492;11.548;2024-03-17T00:51:21;12.50;99.90
31391;DHT22;18022;45.492;11.548;2024-03-17T00:53:47;12.60;99.90
31391;DHT22;18022;45.492;11.548;2024-03-17T00:56:12;12.60;99.90
31391;DHT22;18022;45.492;11.548;2024-03-17T00:58:38;12.60;99.90
31391;DHT22;18022;45.492;11.548;2024-03-17T01:01:04;12.50;99.90
31391;DHT22;18022;45.492;11.548;2024-03-17T01:03:30;12.50;99.90
31391;DHT22;18022;45.492;11.548;2024-03-17T01:05:55;12.30;99.90
31391;DHT22;18022;45.492;11.548;2024-03-17T01:08:21;12.30;99.90
31391;DHT22;18022;45.492;11.548;2024-03-17T01:10:48;12.40;99.90
31391;DHT22;18022;45.492;11.548;2024-03-17T01:13:17;12.50;99.90
31391;DHT22;18022;45.492;11.548;2024-03-17T01:15:43;12.50;99.90
31391;DHT22;18022;45.492;11.548;2024-03-17T01:18:09;12.40;99.90
31391;DHT22;18022;45.492;11.548;2024-03-17T01:20:36;12.30;99.90
31391;DHT22;18022;45.492;11.548;2024-03-17T01:23:03;12.20;99.90
31391;DHT22;18022;45.492;11.548;2024-03-17T01:25:29;12.30;99.90
31391;DHT22;18022;45.492;11.548;2024-03-17T01:27:58;12.30;99.90
31391;DHT22;18022;45.492;11.548;2024-03-17T01:30:23;12.20;99.90
31391;DHT22;18022;45.492;11.548;2024-03-17T01:32:51;11.90;99.90
31391;DHT22;18022;45.492;11.548;2024-03-17T01:35:16;11.90;99.90
31391;DHT22;18022;45.492;11.548;2024-03-17T01:37:42;11.90;99.90
31391;DHT22;18022;45.492;11.548;2024-03-17T01:40:08;11.70;99.90
31391;DHT22;18022;45.492;11.548;2024-03-17T01:42:41;11.70;99.90
31391;DHT22;18022;45.492;11.548;2024-03-17T01:45:31;11.80;99.90
31391;DHT22;18022;45.492;11.548;2024-03-17T01:47:59;11.90;99.90
31391;DHT22;18022;45.492;11.548;2024-03-17T01:50:52;11.70;99.90
31391;DHT22;18022;45.492;11.548;2024-03-17T01:53:19;11.40;99.90
31391;DHT22;18022;45.492;11.548;2024-03-17T01:55:47;11.30;99.90
31391;DHT22;18022;45.492;11.548;2024-03-17T01:58:13;11.30;99.90
31391;DHT22;18022;45.492;11.548;2024-03-17T02:00:39;11.40;99.90
31391;DHT22;18022;45.492;11.548;2024-03-17T02:03:06;11.30;99.90
31391;DHT22;18022;45.492;11.548;2024-03-17T02:05:34;11.20;99.90
31391;DHT22;18022;45.492;11.548;2024-03-17T02:08:00;11.10;99.90
31391;DHT22;18022;45.492;11.548;2024-03-17T02:10:27;11.20;99.90
31391;DHT22;18022;45.492;11.548;2024-03-17T02:12:53;11.20;99.90
31391;DHT22;18022;45.492;11.548;2024-03-17T02:15:19;11.10;99.90
31391;DHT22;18022;45.492;11.548;2024-03-17T02:17:44;11.20;99.90
31391;DHT22;18022;45.492;11.548;2024-03-17T02:20:10;11.10;99.90
31391;DHT22;18022;45.492;11.548;2024-03-17T02:22:37;11.30;99.90
31391;DHT22;18022;45.492;11.548;2024-03-17T02:25:03;11.20;99.90
31391;DHT22;18022;45.492;11.548;2024-03-17T02:27:29;11.30;99.90
31391;DHT22;18022;45.492;11.548;2024-03-17T02:29:55;11.30;99.90
31391;DHT22;18022;45.492;11.548;2024-03-17T02:32:21;11.10;99.90
31391;DHT22;18022;45.492;11.548;2024-03-17T02:34:48;11.00;99.90
31391;DHT22;18022;45.492;11.548;2024-03-17T02:37:14;11.20;99.90
31391;DHT22;18022;45.492;11.548;2024-03-17T02:39:41;11.10;99.90
31391;DHT22;18022;45.492;11.548;2024-03-17T02:42:08;11.20;99.90
31391;DHT22;18022;45.492;11.548;2024-03-17T02:44:35;11.20;99.90
31391;DHT22;18022;45.492;11.548;2024-03-17T02:47:02;11.20;99.90
31391;DHT22;18022;45.492;11.548;2024-03-17T02:49:30;11.20;99.90
31391;DHT22;18022;45.492;11.548;2024-03-17T02:52:09;11.30;99.90
31391;DHT22;18022;45.492;11.548;2024-03-17T02:54:39;11.30;99.90
31391;DHT22;18022;45.492;11.548;2024-03-17T02:57:05;11.10;99.90
31391;DHT22;18022;45.492;11.548;2024-03-17T02:59:32;11.00;99.90
31391;DHT22;18022;45.492;11.548;2024-03-17T03:01:59;10.90;99.90
31391;DHT22;18022;45.492;11.548;2024-03-17T03:04:25;10.80;99.90
31391;DHT22;18022;45.492;11.548;2024-03-17T03:06:51;10.70;99.90
31391;DHT22;18022;45.492;11.548;2024-03-17T03:09:16;10.70;99.90
31391;DHT22;18022;45.492;11.548;2024-03-17T03:11:51;10.60;99.90
31391;DHT22;18022;45.492;11.548;2024-03-17T03:14:17;10.60;99.90
31391;DHT22;18022;45.492;11.548;2024-03-17T03:16:42;10.70;99.90
31391;DHT22;18022;45.492;11.548;2024-03-17T03:19:09;10.60;99.90
31391;DHT22;18022;45.492;11.548;2024-03-17T03:21:35;10.80;99.90
31391;DHT22;18022;45.492;11.548;2024-03-17T03:24:01;10.80;99.90
31391;DHT22;18022;45.492;11.548;2024-03-17T03:26:27;10.80;99.90
31391;DHT22;18022;45.492;11.548;2024-03-17T03:28:54;10.80;99.90
31391;DHT22;18022;45.492;11.548;2024-03-17T03:31:20;10.90;99.90
31391;DHT22;18022;45.492;11.548;2024-03-17T03:33:47;10.90;99.90
31391;DHT22;18022;45.492;11.548;2024-03-17T03:36:15;10.80;99.90
31391;DHT22;18022;45.492;11.548;2024-03-17T03:38:42;10.80;99.90
31391;DHT22;18022;45.492;11.548;2024-03-17T03:41:09;10.80;99.90
31391;DHT22;18022;45.492;11.548;2024-03-17T03:43:34;10.90;99.90
31391;DHT22;18022;45.492;11.548;2024-03-17T03:46:02;10.80;99.90
31391;DHT22;18022;45.492;11.548;2024-03-17T03:48:27;10.80;99.90
31391;DHT22;18022;45.492;11.548;2024-03-17T03:50:53;10.90;99.90
31391;DHT22;18022;45.492;11.548;2024-03-17T03:53:20;10.80;99.90
31391;DHT22;18022;45.492;11.548;2024-03-17T03:55:46;10.70;99.90
31391;DHT22;18022;45.492;11.548;2024-03-17T03:58:11;10.70;99.90
31391;DHT22;18022;45.492;11.548;2024-03-17T04:00:38;10.70;99.90
31391;DHT22;18022;45.492;11.548;2024-03-17T04:03:05;10.80;99.90
31391;DHT22;18022;45.492;11.548;2024-03-17T04:05:31;10.90;99.90
31391;DHT22;18022;45.492;11.548;2024-03-17T04:07:57;10.90;99.90
31391;DHT22;18022;45.492;11.548;2024-03-17T04:10:23;10.90;99.90
31391;DHT22;18022;45.492;11.548;2024-03-17T04:12:50;11.00;99.90
31391;DHT22;18022;45.492;11.548;2024-03-17T04:15:16;10.90;99.90
31391;DHT22;18022;45.492;11.548;2024-03-17T04:17:42;10.90;99.90
31391;DHT22;18022;45.492;11.548;2024-03-17T04:20:08;10.70;99.90
31391;DHT22;18022;45.492;11.548;2024-03-17T04:22:35;10.60;99.90
31391;DHT22;18022;45.492;11.548;2024-03-17T04:25:02;10.60;99.90
31391;DHT22;18022;45.492;11.548;2024-03-17T04:27:29;10.60;99.90
31391;DHT22;18022;45.492;11.548;2024-03-17T04:29:56;10.50;99.90
31391;DHT22;18022;45.492;11.548;2024-03-17T04:32:23;10.50;99.90
31391;DHT22;18022;45.492;11.548;2024-03-17T04:34:48;10.50;99.90
31391;DHT22;18022;45.492;11.548;2024-03-17T04:37:14;10.40;99.90
31391;DHT22;18022;45.492;11.548;2024-03-17T04:39:41;10.50;99.90
31391;DHT22;18022;45.492;11.548;2024-03-17T04:42:09;10.50;99.90
31391;DHT22;18022;45.492;11.548;2024-03-17T04:44:34;10.40;99.90
31391;DHT22;18022;45.492;11.548;2024-03-17T04:47:00;10.50;99.90
31391;DHT22;18022;45.492;11.548;2024-03-17T04:49:26;10.50;99.90
31391;DHT22;18022;45.492;11.548;2024-03-17T04:51:52;10.50;99.90
31391;DHT22;18022;45.492;11.548;2024-03-17T04:54:17;10.50;99.90
31391;DHT22;18022;45.492;11.548;2024-03-17T04:56:43;10.40;99.90
31391;DHT22;18022;45.492;11.548;2024-03-17T04:59:08;10.20;99.90
31391;DHT22;18022;45.492;11.548;2024-03-17T05:01:34;10.20;99.90
31391;DHT22;18022;45.492;11.548;2024-03-17T05:04:04;10.20;99.90
31391;DHT22;18022;45.492;11.548;2024-03-17T05:06:30;10.30;99.90
31391;DHT22;18022;45.492;11.548;2024-03-17T05:08:56;10.20;99.90
31391;DHT22;18022;45.492;11.548;2024-03-17T05:11:22;10.20;99.90
31391;DHT22;18022;45.492;11.548;2024-03-17T05:13:49;10.20;99.90
31391;DHT22;18022;45.492;11.548;2024-03-17T05:16:15;10.20;99.90
31391;DHT22;18022;45.492;11.548;2024-03-17T05:18:41;10.30;99.90
31391;DHT22;18022;45.492;11.548;2024-03-17T05:21:07;10.30;99.90
31391;DHT22;18022;45.492;11.548;2024-03-17T05:23:35;10.30;99.90
31391;DHT22;18022;45.492;11.548;2024-03-17T05:26:01;10.40;99.90
31391;DHT22;18022;45.492;11.548;2024-03-17T05:28:28;10.40;99.90
31391;DHT22;18022;45.492;11.548;2024-03-17T05:30:54;10.40;99.90
31391;DHT22;18022;45.492;11.548;2024-03-17T05:33:21;10.30;99.90
31391;DHT22;18022;45.492;11.548;2024-03-17T05:38:21;10.10;99.90
31391;DHT22;18022;45.492;11.548;2024-03-17T05:40:57;10.00;99.90
31391;DHT22;18022;45.492;11.548;2024-03-17T05:43:26;10.10;99.90
31391;DHT22;18022;45.492;11.548;2024-03-17T05:45:57;10.30;99.90
31391;DHT22;18022;45.492;11.548;2024-03-17T05:48:22;10.40;99.90
31391;DHT22;18022;45.492;11.548;2024-03-17T05:50:50;10.40;99.90
31391;DHT22;18022;45.492;11.548;2024-03-17T05:53:17;10.40;99.90
31391;DHT22;18022;45.492;11.548;2024-03-17T05:55:43;10.40;99.90
31391;DHT22;18022;45.492;11.548;2024-03-17T05:58:10;10.30;99.90
31391;DHT22;18022;45.492;11.548;2024-03-17T06:00:37;10.30;99.90
31391;DHT22;18022;45.492;11.548;2024-03-17T06:03:04;10.30;99.90
31391;DHT22;18022;45.492;11.548;2024-03-17T06:05:38;10.20;99.90
31391;DHT22;18022;45.492;11.548;2024-03-17T06:08:06;10.10;99.90
31391;DHT22;18022;45.492;11.548;2024-03-17T06:10:35;10.20;99.90
31391;DHT22;18022;45.492;11.548;2024-03-17T06:13:02;10.30;99.90
31391;DHT22;18022;45.492;11.548;2024-03-17T06:15:29;10.30;99.90
31391;DHT22;18022;45.492;11.548;2024-03-17T06:17:55;10.40;99.90
31391;DHT22;18022;45.492;11.548;2024-03-17T06:20:22;10.50;99.90
31391;DHT22;18022;45.492;11.548;2024-03-17T06:22:49;10.50;99.90
31391;DHT22;18022;45.492;11.548;2024-03-17T06:25:14;10.50;99.90
31391;DHT22;18022;45.492;11.548;2024-03-17T06:27:40;10.60;99.90
31391;DHT22;18022;45.492;11.548;2024-03-17T06:30:06;10.60;99.90
31391;DHT22;18022;45.492;11.548;2024-03-17T06:32:33;10.50;99.90
31391;DHT22;18022;45.492;11.548;2024-03-17T06:35:01;10.70;99.90
31391;DHT22;18022;45.492;11.548;2024-03-17T06:37:26;10.70;99.90
31391;DHT22;18022;45.492;11.548;2024-03-17T06:39:52;10.80;99.90
31391;DHT22;18022;45.492;11.548;2024-03-17T06:42:19;10.90;99.90
31391;DHT22;18022;45.492;11.548;2024-03-17T06:44:45;11.00;99.90
31391;DHT22;18022;45.492;11.548;2024-03-17T06:47:10;11.00;99.90
31391;DHT22;18022;45.492;11.548;2024-03-17T06:49:36;11.00;99.90
31391;DHT22;18022;45.492;11.548;2024-03-17T06:52:02;11.10;99.90
31391;DHT22;18022;45.492;11.548;2024-03-17T06:54:28;11.10;99.90
31391;DHT22;18022;45.492;11.548;2024-03-17T06:56:53;11.20;99.90
31391;DHT22;18022;45.492;11.548;2024-03-17T06:59:19;11.20;99.90
31391;DHT22;18022;45.492;11.548;2024-03-17T07:01:46;11.30;99.90
31391;DHT22;18022;45.492;11.548;2024-03-17T07:04:15;11.30;99.90
31391;DHT22;18022;45.492;11.548;2024-03-17T07:06:42;11.40;99.90
31391;DHT22;18022;45.492;11.548;2024-03-17T07:09:08;11.30;99.90
31391;DHT22;18022;45.492;11.548;2024-03-17T07:11:34;11.40;99.90
31391;DHT22;18022;45.492;11.548;2024-03-17T07:14:00;11.40;99.90
31391;DHT22;18022;45.492;11.548;2024-03-17T07:16:26;11.40;99.90
31391;DHT22;18022;45.492;11.548;2024-03-17T07:18:52;11.60;99.90
31391;DHT22;18022;45.492;11.548;2024-03-17T07:21:24;11.70;99.90
31391;DHT22;18022;45.492;11.548;2024-03-17T07:23:50;11.80;99.90
31391;DHT22;18022;45.492;11.548;2024-03-17T07:26:16;11.80;99.90
31391;DHT22;18022;45.492;11.548;2024-03-17T07:28:41;11.90;99.90
31391;DHT22;18022;45.492;11.548;2024-03-17T07:31:09;11.90;99.90
31391;DHT22;18022;45.492;11.548;2024-03-17T07:33:35;11.90;99.90
31391;DHT22;18022;45.492;11.548;2024-03-17T07:36:01;12.00;99.90
31391;DHT22;18022;45.492;11.548;2024-03-17T07:38:29;12.10;99.90
31391;DHT22;18022;45.492;11.548;2024-03-17T07:41:04;12.10;99.90
31391;DHT22;18022;45.492;11.548;2024-03-17T07:43:35;12.10;99.90
31391;DHT22;18022;45.492;11.548;2024-03-17T07:46:06;12.10;99.90
31391;DHT22;18022;45.492;11.548;2024-03-17T07:48:35;12.10;99.90
31391;DHT22;18022;45.492;11.548;2024-03-17T07:51:09;12.20;99.90
31391;DHT22;18022;45.492;11.548;2024-03-17T07:53:37;12.20;99.90
31391;DHT22;18022;45.492;11.548;2024-03-17T07:56:14;12.30;99.90
31391;DHT22;18022;45.492;11.548;2024-03-17T07:58:43;12.40;99.90
31391;DHT22;18022;45.492;11.548;2024-03-17T08:01:14;12.50;99.90
31391;DHT22;18022;45.492;11.548;2024-03-17T08:03:42;12.60;99.90
31391;DHT22;18022;45.492;11.548;2024-03-17T08:06:09;12.70;99.90
31391;DHT22;18022;45.492;11.548;2024-03-17T08:08:36;12.80;99.90
31391;DHT22;18022;45.492;11.548;2024-03-17T08:11:03;12.90;99.90
31391;DHT22;18022;45.492;11.548;2024-03-17T08:13:32;13.00;99.90
31391;DHT22;18022;45.492;11.548;2024-03-17T08:16:02;13.00;99.90
31391;DHT22;18022;45.492;11.548;2024-03-17T08:18:28;13.20;99.90
31391;DHT22;18022;45.492;11.548;2024-03-17T08:20:54;13.20;99.90
31391;DHT22;18022;45.492;11.548;2024-03-17T08:23:21;13.30;99.90
31391;DHT22;18022;45.492;11.548;2024-03-17T08:25:56;13.30;99.90
31391;DHT22;18022;45.492;11.548;2024-03-17T08:28:22;13.40;99.90
31391;DHT22;18022;45.492;11.548;2024-03-17T08:30:52;13.50;99.90
31391;DHT22;18022;45.492;11.548;2024-03-17T08:33:19;13.70;99.90
31391;DHT22;18022;45.492;11.548;2024-03-17T08:38:20;13.80;99.90
31391;DHT22;18022;45.492;11.548;2024-03-17T08:40:47;13.90;99.90
31391;DHT22;18022;45.492;11.548;2024-03-17T08:43:12;13.90;99.90
31391;DHT22;18022;45.492;11.548;2024-03-17T08:45:38;13.90;99.90
31391;DHT22;18022;45.492;11.548;2024-03-17T08:48:04;14.00;99.90
31391;DHT22;18022;45.492;11.548;2024-03-17T08:50:30;14.00;99.90
31391;DHT22;18022;45.492;11.548;2024-03-17T08:52:59;14.10;99.90
31391;DHT22;18022;45.492;11.548;2024-03-17T08:55:24;14.20;99.90
31391;DHT22;18022;45.492;11.548;2024-03-17T08:57:50;14.20;99.90
31391;DHT22;18022;45.492;11.548;2024-03-17T09:00:16;14.30;99.90
31391;DHT22;18022;45.492;11.548;2024-03-17T09:02:41;14.30;99.90
31391;DHT22;18022;45.492;11.548;2024-03-17T09:05:07;14.10;99.90
31391;DHT22;18022;45.492;11.548;2024-03-17T09:07:33;14.10;99.90
31391;DHT22;18022;45.492;11.548;2024-03-17T09:09:59;14.30;99.90
31391;DHT22;18022;45.492;11.548;2024-03-17T09:12:25;14.40;99.90
31391;DHT22;18022;45.492;11.548;2024-03-17T09:14:51;14.50;99.90
31391;DHT22;18022;45.492;11.548;2024-03-17T09:17:17;14.50;99.90
31391;DHT22;18022;45.492;11.548;2024-03-17T09:19:46;14.60;99.90
31391;DHT22;18022;45.492;11.548;2024-03-17T09:22:13;14.70;99.90
31391;DHT22;18022;45.492;11.548;2024-03-17T09:24:38;14.60;99.90
31391;DHT22;18022;45.492;11.548;2024-03-17T09:27:04;14.70;99.90
31391;DHT22;18022;45.492;11.548;2024-03-17T09:29:30;14.70;99.90
31391;DHT22;18022;45.492;11.548;2024-03-17T09:31:56;14.80;99.90
31391;DHT22;18022;45.492;11.548;2024-03-17T09:34:22;14.90;99.90
31391;DHT22;18022;45.492;11.548;2024-03-17T09:36:47;15.00;99.90
31391;DHT22;18022;45.492;11.548;2024-03-17T09:39:13;15.00;99.90
31391;DHT22;18022;45.492;11.548;2024-03-17T09:41:40;14.90;99.90
31391;DHT22;18022;45.492;11.548;2024-03-17T09:44:11;15.10;99.90
31391;DHT22;18022;45.492;11.548;2024-03-17T09:46:36;15.10;99.90
31391;DHT22;18022;45.492;11.548;2024-03-17T09:49:02;15.10;99.90
31391;DHT22;18022;45.492;11.548;2024-03-17T09:51:28;15.10;99.90
31391;DHT22;18022;45.492;11.548;2024-03-17T09:53:54;15.20;99.90
31391;DHT22;18022;45.492;11.548;2024-03-17T09:56:20;15.30;99.90
31391;DHT22;18022;45.492;11.548;2024-03-17T09:58:51;15.30;99.90
31391;DHT22;18022;45.492;11.548;2024-03-17T10:01:17;15.40;99.90
31391;DHT22;18022;45.492;11.548;2024-03-17T10:03:53;15.50;99.90
31391;DHT22;18022;45.492;11.548;2024-03-17T10:06:25;15.40;99.90
31391;DHT22;18022;45.492;11.548;2024-03-17T10:08:55;15.60;99.90
31391;DHT22;18022;45.492;11.548;2024-03-17T10:11:32;15.70;99.90
31391;DHT22;18022;45.492;11.548;2024-03-17T10:14:08;15.70;99.90
31391;DHT22;18022;45.492;11.548;2024-03-17T10:16:36;15.70;99.90
31391;DHT22;18022;45.492;11.548;2024-03-17T10:19:09;15.60;99.90
31391;DHT22;18022;45.492;11.548;2024-03-17T10:21:40;15.70;99.90
31391;DHT22;18022;45.492;11.548;2024-03-17T10:24:20;15.70;99.90
31391;DHT22;18022;45.492;11.548;2024-03-17T10:26:50;15.80;99.90
31391;DHT22;18022;45.492;11.548;2024-03-17T10:29:24;15.90;99.90
31391;DHT22;18022;45.492;11.548;2024-03-17T10:31:55;15.90;99.90
31391;DHT22;18022;45.492;11.548;2024-03-17T10:34:22;15.90;99.90
31391;DHT22;18022;45.492;11.548;2024-03-17T10:37:09;15.90;99.90
31391;DHT22;18022;45.492;11.548;2024-03-17T10:39:38;15.90;99.90
31391;DHT22;18022;45.492;11.548;2024-03-17T10:42:06;16.00;99.90
31391;DHT22;18022;45.492;11.548;2024-03-17T10:44:34;16.00;99.90
31391;DHT22;18022;45.492;11.548;2024-03-17T10:47:01;16.20;99.90
31391;DHT22;18022;45.492;11.548;2024-03-17T10:49:33;16.10;99.90
31391;DHT22;18022;45.492;11.548;2024-03-17T10:52:15;16.10;99.90
31391;DHT22;18022;45.492;11.548;2024-03-17T10:54:51;16.20;99.90
31391;DHT22;18022;45.492;11.548;2024-03-17T11:00:06;16.20;99.90
31391;DHT22;18022;45.492;11.548;2024-03-17T11:02:34;16.30;99.90
31391;DHT22;18022;45.492;11.548;2024-03-17T11:05:05;16.50;99.90
31391;DHT22;18022;45.492;11.548;2024-03-17T11:07:33;16.70;99.90
31391;DHT22;18022;45.492;11.548;2024-03-17T11:10:03;16.80;99.90
31391;DHT22;18022;45.492;11.548;2024-03-17T11:12:53;16.80;99.90
31391;DHT22;18022;45.492;11.548;2024-03-17T11:17:48;17.30;99.90
31391;DHT22;18022;45.492;11.548;2024-03-17T11:20:27;17.30;99.90
31391;DHT22;18022;45.492;11.548;2024-03-17T11:22:57;17.30;99.90
31391;DHT22;18022;45.492;11.548;2024-03-17T11:27:55;17.30;99.90
31391;DHT22;18022;45.492;11.548;2024-03-17T11:38:55;17.60;99.90
31391;DHT22;18022;45.492;11.548;2024-03-17T11:41:41;17.70;99.90
31391;DHT22;18022;45.492;11.548;2024-03-17T11:44:24;18.00;99.90
31391;DHT22;18022;45.492;11.548;2024-03-17T11:46:58;17.90;99.90
31391;DHT22;18022;45.492;11.548;2024-03-17T11:49:32;18.10;99.90
31391;DHT22;18022;45.492;11.548;2024-03-17T11:52:09;18.20;99.90
31391;DHT22;18022;45.492;11.548;2024-03-17T11:54:37;18.30;99.90
31391;DHT22;18022;45.492;11.548;2024-03-17T11:57:12;18.50;99.90
31391;DHT22;18022;45.492;11.548;2024-03-17T11:59:45;18.70;99.90
31391;DHT22;18022;45.492;11.548;2024-03-17T12:02:26;18.80;99.90
31391;DHT22;18022;45.492;11.548;2024-03-17T12:05:00;18.80;99.90
31391;DHT22;18022;45.492;11.548;2024-03-17T12:07:26;18.60;99.90
31391;DHT22;18022;45.492;11.548;2024-03-17T12:09:53;18.70;99.90
31391;DHT22;18022;45.492;11.548;2024-03-17T12:12:25;18.60;99.90
31391;DHT22;18022;45.492;11.548;2024-03-17T12:15:00;18.60;99.90
31391;DHT22;18022;45.492;11.548;2024-03-17T12:17:26;18.70;99.90
31391;DHT22;18022;45.492;11.548;2024-03-17T12:19:52;18.90;99.90
31391;DHT22;18022;45.492;11.548;2024-03-17T12:22:19;19.10;99.90
31391;DHT22;18022;45.492;11.548;2024-03-17T12:24:48;19.30;99.90
31391;DHT22;18022;45.492;11.548;2024-03-17T12:27:18;19.30;99.90
31391;DHT22;18022;45.492;11.548;2024-03-17T12:29:44;19.30;99.90
31391;DHT22;18022;45.492;11.548;2024-03-17T12:34:39;19.40;99.90
31391;DHT22;18022;45.492;11.548;2024-03-17T12:37:05;19.50;99.90
31391;DHT22;18022;45.492;11.548;2024-03-17T12:39:32;19.40;99.90
31391;DHT22;18022;45.492;11.548;2024-03-17T12:42:09;19.50;99.90
31391;DHT22;18022;45.492;11.548;2024-03-17T12:44:37;19.30;99.90
31391;DHT22;18022;45.492;11.548;2024-03-17T12:47:17;19.30;99.90
31391;DHT22;18022;45.492;11.548;2024-03-17T12:52:25;19.10;99.90
31391;DHT22;18022;45.492;11.548;2024-03-17T12:57:45;18.90;99.90
31391;DHT22;18022;45.492;11.548;2024-03-17T13:00:30;18.70;99.90
31391;DHT22;18022;45.492;11.548;2024-03-17T13:03:05;18.60;99.90
31391;DHT22;18022;45.492;11.548;2024-03-17T13:05:35;18.60;99.90
31391;DHT22;18022;45.492;11.548;2024-03-17T13:08:01;18.60;99.90
31391;DHT22;18022;45.492;11.548;2024-03-17T13:10:28;18.60;99.90
31391;DHT22;18022;45.492;11.548;2024-03-17T13:13:05;18.60;99.90
31391;DHT22;18022;45.492;11.548;2024-03-17T13:15:32;18.70;99.90
31391;DHT22;18022;45.492;11.548;2024-03-17T13:18:03;18.70;99.90
31391;DHT22;18022;45.492;11.548;2024-03-17T13:20:30;18.60;99.90
31391;DHT22;18022;45.492;11.548;2024-03-17T13:22:56;18.50;99.90
31391;DHT22;18022;45.492;11.548;2024-03-17T13:25:27;18.50;99.90
31391;DHT22;18022;45.492;11.548;2024-03-17T13:27:55;18.60;99.90
31391;DHT22;18022;45.492;11.548;2024-03-17T13:30:23;18.60;99.90
31391;DHT22;18022;45.492;11.548;2024-03-17T13:32:49;18.70;99.90
31391;DHT22;18022;45.492;11.548;2024-03-17T13:35:26;18.60;99.90
31391;DHT22;18022;45.492;11.548;2024-03-17T13:37:52;18.70;99.90
31391;DHT22;18022;45.492;11.548;2024-03-17T13:40:20;18.70;99.90
31391;DHT22;18022;45.492;11.548;2024-03-17T13:42:48;18.80;99.90
31391;DHT22;18022;45.492;11.548;2024-03-17T13:45:14;19.00;99.90
31391;DHT22;18022;45.492;11.548;2024-03-17T13:48:13;19.10;99.90
31391;DHT22;18022;45.492;11.548;2024-03-17T13:50:40;19.10;99.90
31391;DHT22;18022;45.492;11.548;2024-03-17T13:53:08;19.00;99.90
31391;DHT22;18022;45.492;11.548;2024-03-17T13:55:34;19.00;99.90
31391;DHT22;18022;45.492;11.548;2024-03-17T13:58:00;18.90;99.90
31391;DHT22;18022;45.492;11.548;2024-03-17T14:00:28;18.70;99.60
31391;DHT22;18022;45.492;11.548;2024-03-17T14:02:55;18.60;99.90
31391;DHT22;18022;45.492;11.548;2024-03-17T14:05:25;18.60;99.80
31391;DHT22;18022;45.492;11.548;2024-03-17T14:07:55;18.60;99.90
31391;DHT22;18022;45.492;11.548;2024-03-17T14:10:22;18.60;99.90
31391;DHT22;18022;45.492;11.548;2024-03-17T14:12:49;18.50;99.70
31391;DHT22;18022;45.492;11.548;2024-03-17T14:15:15;18.50;99.40
31391;DHT22;18022;45.492;11.548;2024-03-17T14:17:44;18.50;99.80
31391;DHT22;18022;45.492;11.548;2024-03-17T14:20:10;18.40;99.50
31391;DHT22;18022;45.492;11.548;2024-03-17T14:22:42;18.40;99.60
31391;DHT22;18022;45.492;11.548;2024-03-17T14:25:14;18.40;99.90
31391;DHT22;18022;45.492;11.548;2024-03-17T14:27:40;18.30;99.40
31391;DHT22;18022;45.492;11.548;2024-03-17T14:30:07;18.30;99.70
31391;DHT22;18022;45.492;11.548;2024-03-17T14:32:33;18.30;99.80
31391;DHT22;18022;45.492;11.548;2024-03-17T14:34:59;18.30;99.90
31391;DHT22;18022;45.492;11.548;2024-03-17T14:37:25;18.20;99.80
31391;DHT22;18022;45.492;11.548;2024-03-17T14:39:51;18.20;99.90
31391;DHT22;18022;45.492;11.548;2024-03-17T14:42:20;18.20;99.90
31391;DHT22;18022;45.492;11.548;2024-03-17T14:44:46;18.20;99.90
31391;DHT22;18022;45.492;11.548;2024-03-17T14:47:15;18.10;99.90
31391;DHT22;18022;45.492;11.548;2024-03-17T14:49:41;18.00;99.90
31391;DHT22;18022;45.492;11.548;2024-03-17T14:52:08;18.10;99.90
31391;DHT22;18022;45.492;11.548;2024-03-17T14:54:35;18.00;99.90
31391;DHT22;18022;45.492;11.548;2024-03-17T14:57:01;18.10;99.90
31391;DHT22;18022;45.492;11.548;2024-03-17T14:59:27;18.10;99.90
31391;DHT22;18022;45.492;11.548;2024-03-17T15:01:53;18.00;99.90
31391;DHT22;18022;45.492;11.548;2024-03-17T15:04:19;17.90;99.90
31391;DHT22;18022;45.492;11.548;2024-03-17T15:06:45;17.90;99.90
31391;DHT22;18022;45.492;11.548;2024-03-17T15:09:11;17.90;99.90
31391;DHT22;18022;45.492;11.548;2024-03-17T15:11:44;17.90;99.90
31391;DHT22;18022;45.492;11.548;2024-03-17T15:14:10;17.80;99.90
31391;DHT22;18022;45.492;11.548;2024-03-17T15:16:37;17.90;99.90
31391;DHT22;18022;45.492;11.548;2024-03-17T15:19:06;17.90;99.90
31391;DHT22;18022;45.492;11.548;2024-03-17T15:21:32;17.80;99.90
31391;DHT22;18022;45.492;11.548;2024-03-17T15:23:58;17.90;99.90
31391;DHT22;18022;45.492;11.548;2024-03-17T15:26:24;17.80;99.90
31391;DHT22;18022;45.492;11.548;2024-03-17T15:28:50;17.80;99.90
31391;DHT22;18022;45.492;11.548;2024-03-17T15:31:16;17.80;99.90
31391;DHT22;18022;45.492;11.548;2024-03-17T15:33:43;17.90;99.90
31391;DHT22;18022;45.492;11.548;2024-03-17T15:36:09;17.80;99.90
31391;DHT22;18022;45.492;11.548;2024-03-17T15:38:36;17.80;99.90
31391;DHT22;18022;45.492;11.548;2024-03-17T15:41:10;17.80;99.90
31391;DHT22;18022;45.492;11.548;2024-03-17T15:43:42;17.90;99.90
31391;DHT22;18022;45.492;11.548;2024-03-17T15:46:15;17.90;99.90
31391;DHT22;18022;45.492;11.548;2024-03-17T15:48:42;17.80;99.90
31391;DHT22;18022;45.492;11.548;2024-03-17T15:51:07;17.90;99.90